createdAt,value
2023-05-28T00:00:17.852Z,95154.50
2023-05-28T00:02:46.649Z,95150.72
2023-05-28T00:05:13.522Z,95150.34
2023-05-28T00:07:43.025Z,95148.19
2023-05-28T00:10:10.183Z,95151.59
2023-05-28T00:12:37.119Z,95145.63
2023-05-28T00:15:04.235Z,95146.59
2023-05-28T00:17:31.107Z,95138.00
2023-05-28T00:19:57.910Z,95140.59
2023-05-28T00:22:26.273Z,95140.22
2023-05-28T00:24:53.330Z,95149.41
2023-05-28T00:27:19.940Z,95132.75
2023-05-28T00:29:46.699Z,95135.63
2023-05-28T00:32:13.779Z,95132.00
2023-05-28T00:34:40.530Z,95132.53
2023-05-28T00:37:07.987Z,95132.72
2023-05-28T00:39:34.642Z,95124.19
2023-05-28T00:42:03.227Z,95135.00
2023-05-28T00:44:33.610Z,95129.19
2023-05-28T00:47:01.024Z,95131.38
2023-05-28T00:49:28.496Z,95127.56
2023-05-28T00:51:57.195Z,95127.16
2023-05-28T00:54:24.628Z,95120.25
2023-05-28T00:56:53.697Z,95130.91
2023-05-28T00:59:21.138Z,95127.66
2023-05-28T01:01:48.912Z,95121.72
2023-05-28T01:04:15.753Z,95116.84
2023-05-28T01:06:44.464Z,95111.56
2023-05-28T01:09:12.399Z,95117.38
2023-05-28T01:11:42.167Z,95128.78
2023-05-28T01:14:09.504Z,95122.81
2023-05-28T01:16:36.568Z,95111.69
2023-05-28T01:19:10.216Z,95115.22
2023-05-28T01:21:42.632Z,95117.13
2023-05-28T01:24:10.358Z,95112.53
2023-05-28T01:26:37.600Z,95107.41
2023-05-28T01:29:14.974Z,95115.41
2023-05-28T01:31:42.138Z,95110.28
2023-05-28T01:34:10.872Z,95104.03
2023-05-28T01:36:44.522Z,95101.22
2023-05-28T01:39:16.678Z,95104.47
2023-05-28T01:41:47.353Z,95102.56
2023-05-28T01:44:19.806Z,95097.00
2023-05-28T01:46:47.693Z,95100.78
2023-05-28T01:49:14.640Z,95098.91
2023-05-28T01:51:41.788Z,95098.78
2023-05-28T01:54:08.587Z,95100.41
2023-05-28T01:56:35.380Z,95098.66
2023-05-28T01:59:03.446Z,95095.53
2023-05-28T02:01:32.132Z,95092.28
2023-05-28T02:04:01.380Z,95083.59
2023-05-28T02:06:31.002Z,95087.13
2023-05-28T02:08:58.378Z,95085.78
2023-05-28T02:11:26.547Z,95083.47
2023-05-28T02:13:55.423Z,95083.75
2023-05-28T02:16:23.633Z,95089.56
2023-05-28T02:18:56.177Z,95090.78
2023-05-28T02:21:24.428Z,95089.19
2023-05-28T02:23:51.743Z,95094.03
2023-05-28T02:26:19.107Z,95085.66
2023-05-28T02:28:46.730Z,95091.88
2023-05-28T02:31:14.789Z,95091.06
2023-05-28T02:33:44.996Z,95089.72
2023-05-28T02:36:15.110Z,95090.13
2023-05-28T02:38:43.214Z,95084.53
2023-05-28T02:41:12.930Z,95087.13
2023-05-28T02:43:46.387Z,95088.34
2023-05-28T02:46:13.211Z,95094.00
2023-05-28T02:48:40.383Z,95085.94
2023-05-28T02:51:08.613Z,95098.25
2023-05-28T02:53:53.923Z,95084.44
2023-05-28T02:56:22.250Z,95096.22
2023-05-28T02:58:48.915Z,95101.06
2023-05-28T03:01:15.806Z,95099.31
2023-05-28T03:03:43.109Z,95107.03
2023-05-28T03:06:09.808Z,95104.72
2023-05-28T03:08:45.374Z,95100.53
2023-05-28T03:11:12.565Z,95107.16
2023-05-28T03:13:39.349Z,95114.19
2023-05-28T03:16:07.666Z,95117.44
2023-05-28T03:18:36.216Z,95119.19
2023-05-28T03:21:03.936Z,95109.72
2023-05-28T03:23:30.971Z,95115.78
2023-05-28T03:26:08.352Z,95117.81
2023-05-28T03:28:35.643Z,95126.06
2023-05-28T03:31:21.603Z,95119.44
2023-05-28T03:33:49.054Z,95119.56
2023-05-28T03:36:15.680Z,95122.72
2023-05-28T03:38:42.435Z,95118.22
2023-05-28T03:41:09.101Z,95117.44
2023-05-28T03:43:36.216Z,95117.56
2023-05-28T03:46:03.279Z,95120.38
2023-05-28T03:48:30.202Z,95121.75
2023-05-28T03:50:58.100Z,95114.56
2023-05-28T03:53:24.923Z,95108.91
2023-05-28T03:55:53.035Z,95105.94
2023-05-28T03:58:22.033Z,95114.19
2023-05-28T04:00:48.726Z,95117.44
2023-05-28T04:03:15.447Z,95122.44
2023-05-28T04:05:44.499Z,95114.44
2023-05-28T04:08:11.382Z,95115.41
2023-05-28T04:10:38.109Z,95106.50
2023-05-28T04:13:04.911Z,95111.66
2023-05-28T04:15:32.378Z,95116.38
2023-05-28T04:17:59.216Z,95122.34
2023-05-28T04:20:26.120Z,95119.47
2023-05-28T04:22:52.862Z,95116.91
2023-05-28T04:25:20.044Z,95123.16
2023-05-28T04:27:47.495Z,95128.69
2023-05-28T04:30:14.373Z,95124.91
2023-05-28T04:32:41.074Z,95131.41
2023-05-28T04:35:12.868Z,95128.00
2023-05-28T04:37:41.038Z,95135.19
2023-05-28T04:40:08.594Z,95138.69
2023-05-28T04:42:35.384Z,95137.06
2023-05-28T04:45:02.045Z,95139.63
2023-05-28T04:47:29.733Z,95139.31
2023-05-28T04:49:58.528Z,95140.09
2023-05-28T04:52:25.257Z,95148.19
2023-05-28T04:54:52.311Z,95138.25
2023-05-28T04:57:19.356Z,95135.31
2023-05-28T04:59:47.029Z,95138.22
2023-05-28T05:02:14.279Z,95142.91
2023-05-28T05:04:41.043Z,95138.06
2023-05-28T05:07:08.056Z,95140.34
2023-05-28T05:09:34.905Z,95144.81
2023-05-28T05:12:01.899Z,95146.75
2023-05-28T05:14:28.598Z,95141.44
2023-05-28T05:16:55.571Z,95141.09
2023-05-28T05:19:22.183Z,95136.78
2023-05-28T05:21:49.072Z,95139.50
2023-05-28T05:24:16.503Z,95134.78
2023-05-28T05:26:43.422Z,95137.31
2023-05-28T05:29:10.340Z,95135.28
2023-05-28T05:31:37.269Z,95129.34
2023-05-28T05:34:06.359Z,95128.09
2023-05-28T05:36:41.848Z,95126.97
2023-05-28T05:39:28.180Z,95124.88
2023-05-28T05:42:13.496Z,95130.53
2023-05-28T05:44:47.313Z,95124.84
2023-05-28T05:47:14.679Z,95125.19
2023-05-28T05:49:41.643Z,95125.16
2023-05-28T05:52:08.439Z,95124.59
2023-05-28T05:54:37.447Z,95134.53
2023-05-28T05:57:04.748Z,95137.22
2023-05-28T05:59:31.743Z,95135.94
2023-05-28T06:02:00.457Z,95137.41
2023-05-28T06:04:33.265Z,95138.91
2023-05-28T06:07:07.767Z,95138.53
2023-05-28T06:09:57.960Z,95131.88
2023-05-28T06:12:30.719Z,95140.41
2023-05-28T06:14:58.184Z,95140.72
2023-05-28T06:17:25.698Z,95141.91
2023-05-28T06:19:53.534Z,95148.25
2023-05-28T06:22:20.115Z,95135.78
2023-05-28T06:24:47.822Z,95141.13
2023-05-28T06:27:14.552Z,95142.94
2023-05-28T06:29:42.413Z,95143.53
2023-05-28T06:32:09.257Z,95146.50
2023-05-28T06:34:36.021Z,95150.25
2023-05-28T06:37:02.626Z,95141.50
2023-05-28T06:39:29.453Z,95139.75
2023-05-28T06:41:57.174Z,95140.47
2023-05-28T06:44:37.282Z,95144.41
2023-05-28T06:47:08.904Z,95146.19
2023-05-28T06:49:36.388Z,95147.91
2023-05-28T06:52:03.160Z,95136.03
2023-05-28T06:54:30.577Z,95139.34
2023-05-28T06:56:57.686Z,95136.50
2023-05-28T06:59:30.753Z,95131.44
2023-05-28T07:02:19.765Z,95129.31
2023-05-28T07:04:57.573Z,95130.81
2023-05-28T07:07:30.002Z,95134.84
2023-05-28T07:09:56.655Z,95135.78
2023-05-28T07:12:24.517Z,95135.03
2023-05-28T07:14:55.182Z,95133.53
2023-05-28T07:17:22.332Z,95137.53
2023-05-28T07:19:50.679Z,95135.19
2023-05-28T07:22:25.216Z,95129.28
2023-05-28T07:24:51.971Z,95138.47
2023-05-28T07:27:18.873Z,95139.72
2023-05-28T07:29:45.634Z,95132.84
2023-05-28T07:32:16.385Z,95129.75
2023-05-28T07:34:44.980Z,95129.19
2023-05-28T07:37:13.463Z,95127.00
2023-05-28T07:39:41.571Z,95134.81
2023-05-28T07:42:08.520Z,95126.97
2023-05-28T07:44:39.505Z,95126.53
2023-05-28T07:47:06.776Z,95130.81
2023-05-28T07:49:53.652Z,95132.84
2023-05-28T07:52:26.797Z,95128.81
2023-05-28T07:54:53.733Z,95128.63
2023-05-28T07:57:21.178Z,95122.75
2023-05-28T07:59:48.675Z,95130.22
2023-05-28T08:02:16.574Z,95123.97
2023-05-28T08:04:43.529Z,95122.28
2023-05-28T08:07:14.209Z,95123.66
2023-05-28T08:09:42.586Z,95113.34
2023-05-28T08:12:12.039Z,95121.63
2023-05-28T08:14:39.579Z,95125.47
2023-05-28T08:17:09.384Z,95113.69
2023-05-28T08:22:41.897Z,95112.63
2023-05-28T08:25:09.847Z,95119.44
2023-05-28T08:27:37.943Z,95119.41
2023-05-28T08:30:05.094Z,95114.41
2023-05-28T08:32:35.524Z,95114.63
2023-05-28T08:35:02.268Z,95112.38
2023-05-28T08:37:29.324Z,95110.63
2023-05-28T08:40:14.526Z,95114.03
2023-05-28T08:42:41.735Z,95106.50
2023-05-28T08:45:09.072Z,95109.13
2023-05-28T08:47:39.487Z,95104.38
2023-05-28T08:50:17.902Z,95101.97
2023-05-28T08:53:00.960Z,95107.22
2023-05-28T08:55:28.750Z,95095.16
2023-05-28T08:58:08.259Z,95097.50
2023-05-28T09:00:35.857Z,95097.34
2023-05-28T09:03:21.349Z,95097.88
2023-05-28T09:05:49.595Z,95087.69
2023-05-28T09:08:18.284Z,95096.19
2023-05-28T09:10:45.484Z,95095.66
2023-05-28T09:13:12.277Z,95089.09
2023-05-28T09:15:42.582Z,95084.28
2023-05-28T09:18:10.805Z,95081.50
2023-05-28T09:20:39.236Z,95087.00
2023-05-28T09:23:07.716Z,95081.69
2023-05-28T09:26:10.630Z,95080.22
2023-05-28T09:28:52.737Z,95078.94
2023-05-28T09:31:19.504Z,95079.38
2023-05-28T09:33:46.855Z,95074.44
2023-05-28T09:36:17.833Z,95078.53
2023-05-28T09:38:45.203Z,95077.25
2023-05-28T09:41:24.156Z,95081.03
2023-05-28T09:43:59.092Z,95077.16
2023-05-28T09:46:33.554Z,95072.81
2023-05-28T09:49:01.396Z,95085.88
2023-05-28T09:51:30.724Z,95076.56
2023-05-28T09:54:04.427Z,95079.34
2023-05-28T09:56:34.347Z,95076.97
2023-05-28T09:59:03.840Z,95083.84
2023-05-28T10:01:37.160Z,95073.78
2023-05-28T10:04:12.682Z,95070.38
2023-05-28T10:06:41.674Z,95082.94
2023-05-28T10:09:14.107Z,95085.38
2023-05-28T10:11:51.719Z,95076.09
2023-05-28T10:14:18.682Z,95077.56
2023-05-28T10:16:46.990Z,95074.59
2023-05-28T10:19:14.389Z,95078.91
2023-05-28T10:21:41.589Z,95075.44
2023-05-28T10:24:09.671Z,95077.22
2023-05-28T10:26:36.589Z,95075.50
2023-05-28T10:29:08.283Z,95073.38
2023-05-28T10:31:35.083Z,95065.25
2023-05-28T10:34:01.850Z,95070.63
2023-05-28T10:36:28.834Z,95063.63
2023-05-28T10:38:55.624Z,95072.00
2023-05-28T10:41:22.864Z,95062.66
2023-05-28T10:43:50.908Z,95062.22
2023-05-28T10:46:26.851Z,95067.63
2023-05-28T10:49:12.716Z,95061.09
2023-05-28T10:51:58.831Z,95055.13
2023-05-28T10:54:48.680Z,95047.94
2023-05-28T10:57:15.467Z,95053.38
2023-05-28T10:59:48.049Z,95047.41
2023-05-28T11:02:24.178Z,95055.50
2023-05-28T11:05:02.382Z,95050.22
2023-05-28T11:07:36.257Z,95045.25
2023-05-28T11:10:08.744Z,95049.53
2023-05-28T11:12:40.828Z,95044.91
2023-05-28T11:15:09.553Z,95047.69
2023-05-28T11:17:43.961Z,95041.47
2023-05-28T11:20:28.805Z,95044.75
2023-05-28T11:22:56.695Z,95041.03
2023-05-28T11:25:26.452Z,95038.91
2023-05-28T11:27:54.740Z,95034.28
2023-05-28T11:30:22.382Z,95038.13
2023-05-28T11:32:49.673Z,95043.00
2023-05-28T11:35:17.287Z,95040.44
2023-05-28T11:37:45.575Z,95036.94
2023-05-28T11:40:14.990Z,95038.31
2023-05-28T11:42:43.266Z,95034.19
2023-05-28T11:45:12.580Z,95032.44
2023-05-28T11:47:39.606Z,95034.69
2023-05-28T11:50:13.541Z,95027.19
2023-05-28T11:52:41.149Z,95028.81
2023-05-28T11:55:08.443Z,95026.63
2023-05-28T11:57:38.159Z,95032.16
2023-05-28T12:00:13.428Z,95028.91
2023-05-28T12:02:47.573Z,95029.38
2023-05-28T12:05:16.049Z,95027.19
2023-05-28T12:07:46.692Z,95025.06
2023-05-28T12:10:15.446Z,95024.94
2023-05-28T12:12:46.598Z,95022.03
2023-05-28T12:15:13.957Z,95031.38
2023-05-28T12:17:44.513Z,95029.22
2023-05-28T12:20:18.100Z,95021.66
2023-05-28T12:22:45.368Z,95026.63
2023-05-28T12:25:12.601Z,95024.78
2023-05-28T12:27:39.347Z,95017.22
2023-05-28T12:30:07.157Z,95023.94
2023-05-28T12:32:36.154Z,95026.13
2023-05-28T12:35:03.681Z,95018.59
2023-05-28T12:37:30.423Z,95019.91
2023-05-28T12:39:57.371Z,95020.25
2023-05-28T12:42:24.152Z,95018.09
2023-05-28T12:44:51.032Z,95017.56
2023-05-28T12:47:17.914Z,95009.06
2023-05-28T12:49:44.578Z,95009.38
2023-05-28T12:52:11.249Z,95010.84
2023-05-28T12:54:38.003Z,95010.13
2023-05-28T12:57:05.067Z,95001.75
2023-05-28T12:59:31.912Z,95010.44
2023-05-28T13:01:59.283Z,95015.44
2023-05-28T13:04:26.242Z,95012.91
2023-05-28T13:06:54.455Z,95003.69
2023-05-28T13:09:21.438Z,95013.25
2023-05-28T13:11:48.407Z,95011.16
2023-05-28T13:14:15.071Z,95005.44
2023-05-28T13:16:41.863Z,95000.16
2023-05-28T13:19:08.852Z,94999.16
2023-05-28T13:21:38.729Z,95001.69
2023-05-28T13:24:07.355Z,95004.03
2023-05-28T13:26:35.547Z,95003.41
2023-05-28T13:29:05.618Z,94992.53
2023-05-28T13:31:32.741Z,95007.91
2023-05-28T13:34:01.337Z,94996.75
2023-05-28T13:36:28.772Z,95001.44
2023-05-28T13:38:57.079Z,95002.81
2023-05-28T13:41:27.566Z,94990.78
2023-05-28T13:43:55.800Z,94993.59
2023-05-28T13:46:26.036Z,94994.34
2023-05-28T13:48:52.725Z,94984.59
2023-05-28T13:51:19.876Z,94980.00
2023-05-28T13:53:47.558Z,94982.06
2023-05-28T13:56:16.060Z,94987.00
2023-05-28T13:58:42.895Z,94979.06
2023-05-28T14:01:09.722Z,94974.59
2023-05-28T14:03:36.518Z,94981.94
2023-05-28T14:06:04.807Z,94979.31
2023-05-28T14:08:31.958Z,94981.16
2023-05-28T14:10:58.604Z,94979.22
2023-05-28T14:13:31.624Z,94975.06
2023-05-28T14:15:59.712Z,94973.59
2023-05-28T14:18:26.399Z,94976.34
2023-05-28T14:20:53.825Z,94966.75
2023-05-28T14:23:20.738Z,94972.06
2023-05-28T14:25:47.445Z,94967.66
2023-05-28T14:28:14.137Z,94971.84
2023-05-28T14:30:41.060Z,94971.34
2023-05-28T14:33:07.796Z,94959.97
2023-05-28T14:35:34.768Z,94957.47
2023-05-28T14:38:01.386Z,94957.06
2023-05-28T14:40:28.006Z,94961.69
2023-05-28T14:42:54.653Z,94966.50
2023-05-28T14:45:21.355Z,94965.16
2023-05-28T14:47:47.993Z,94963.59
2023-05-28T14:50:15.067Z,94965.50
2023-05-28T14:52:42.584Z,94959.25
2023-05-28T14:55:09.469Z,94965.72
2023-05-28T14:57:37.708Z,94967.25
2023-05-28T15:00:08.231Z,94972.84
2023-05-28T15:02:35.622Z,94962.88
2023-05-28T15:05:04.557Z,94966.19
2023-05-28T15:07:34.387Z,94972.59
2023-05-28T15:10:01.165Z,94967.00
2023-05-28T15:12:28.094Z,94955.56
2023-05-28T15:14:54.953Z,94963.63
2023-05-28T15:17:22.197Z,94968.16
2023-05-28T15:19:49.708Z,94962.97
2023-05-28T15:22:23.218Z,94970.94
2023-05-28T15:24:51.102Z,94964.63
2023-05-28T15:27:17.819Z,94969.41
2023-05-28T15:29:45.581Z,94969.56
2023-05-28T15:32:13.127Z,94961.78
2023-05-28T15:34:40.115Z,94968.28
2023-05-28T15:37:07.342Z,94969.53
2023-05-28T15:39:34.289Z,94970.47
2023-05-28T15:42:05.957Z,94968.72
2023-05-28T15:44:35.188Z,94971.25
2023-05-28T15:47:02.431Z,94967.94
2023-05-28T15:49:30.047Z,94965.88
2023-05-28T15:52:00.454Z,94964.50
2023-05-28T15:54:27.275Z,94961.66
2023-05-28T15:56:54.379Z,94957.78
2023-05-28T15:59:21.382Z,94957.88
2023-05-28T16:01:51.859Z,94947.31
2023-05-28T16:04:21.666Z,94951.41
2023-05-28T16:06:48.815Z,94945.38
2023-05-28T16:09:15.827Z,94953.66
2023-05-28T16:11:48.034Z,94946.34
2023-05-28T16:14:18.455Z,94954.22
2023-05-28T16:16:51.701Z,94949.53
2023-05-28T16:19:18.780Z,94947.66
2023-05-28T16:21:45.822Z,94953.00
2023-05-28T16:24:14.012Z,94942.91
2023-05-28T16:26:41.157Z,94943.91
2023-05-28T16:29:08.022Z,94944.75
2023-05-28T16:31:37.565Z,94939.41
2023-05-28T16:34:04.794Z,94937.66
2023-05-28T16:36:34.075Z,94940.44
2023-05-28T16:39:01.237Z,94944.75
2023-05-28T16:41:28.315Z,94934.59
2023-05-28T16:43:56.318Z,94938.97
2023-05-28T16:46:24.558Z,94941.50
2023-05-28T16:48:53.636Z,94939.16
2023-05-28T16:51:20.850Z,94941.78
2023-05-28T16:53:50.551Z,94946.59
2023-05-28T16:56:19.629Z,94946.28
2023-05-28T16:58:48.141Z,94945.34
2023-05-28T17:01:19.730Z,94938.66
2023-05-28T17:03:47.084Z,94944.19
2023-05-28T17:06:14.019Z,94942.53
2023-05-28T17:08:40.772Z,94934.84
2023-05-28T17:11:07.370Z,94946.91
2023-05-28T17:13:34.045Z,94946.50
2023-05-28T17:16:00.831Z,94947.13
2023-05-28T17:18:27.450Z,94950.34
2023-05-28T17:20:54.225Z,94945.91
2023-05-28T17:23:20.923Z,94940.88
2023-05-28T17:25:47.683Z,94948.91
2023-05-28T17:28:14.790Z,94943.34
2023-05-28T17:30:41.512Z,94944.56
2023-05-28T17:33:08.273Z,94948.66
2023-05-28T17:35:35.123Z,94952.13
2023-05-28T17:38:01.967Z,94958.63
2023-05-28T17:40:28.721Z,94958.97
2023-05-28T17:42:55.372Z,94961.81
2023-05-28T17:45:22.333Z,94956.88
2023-05-28T17:47:49.087Z,94954.34
2023-05-28T17:50:15.990Z,94962.19
2023-05-28T17:52:42.584Z,94958.28
2023-05-28T17:55:10.012Z,94965.91
2023-05-28T17:57:36.765Z,94963.56
2023-05-28T18:00:09.610Z,94971.84
2023-05-28T18:02:36.629Z,94971.25
2023-05-28T18:05:03.638Z,94968.19
2023-05-28T18:07:30.269Z,94971.78
2023-05-28T18:09:58.144Z,94971.38
2023-05-28T18:12:24.790Z,94965.69
2023-05-28T18:14:51.557Z,94966.88
2023-05-28T18:17:24.915Z,94968.09
2023-05-28T18:19:52.947Z,94967.81
2023-05-28T18:22:19.987Z,94966.59
2023-05-28T18:24:46.892Z,94966.31
2023-05-28T18:27:13.558Z,94966.50
2023-05-28T18:29:40.887Z,94965.06
2023-05-28T18:32:07.530Z,94969.19
2023-05-28T18:34:35.109Z,94966.56
2023-05-28T18:37:01.775Z,94969.28
2023-05-28T18:39:29.110Z,94971.59
2023-05-28T18:41:56.187Z,94966.63
2023-05-28T18:44:22.958Z,94970.78
2023-05-28T18:46:49.794Z,94963.19
2023-05-28T18:49:16.617Z,94972.06
2023-05-28T18:51:46.623Z,94972.75
2023-05-28T18:54:13.838Z,94978.03
2023-05-28T18:56:40.757Z,94974.91
2023-05-28T18:59:07.569Z,94976.94
2023-05-28T19:01:34.344Z,94983.06
2023-05-28T19:04:01.257Z,94988.72
2023-05-28T19:06:28.424Z,94993.19
2023-05-28T19:08:55.109Z,94990.25
2023-05-28T19:11:22.618Z,94989.63
2023-05-28T19:13:49.389Z,94987.94
2023-05-28T19:16:16.160Z,94988.09
2023-05-28T19:18:42.986Z,94999.28
2023-05-28T19:21:09.621Z,95001.78
2023-05-28T19:23:36.190Z,94997.66
2023-05-28T19:26:02.801Z,95009.31
2023-05-28T19:28:29.557Z,95004.25
2023-05-28T19:30:56.332Z,95009.63
2023-05-28T19:33:23.146Z,95009.72
2023-05-28T19:35:49.809Z,95015.94
2023-05-28T19:38:16.422Z,95013.59
2023-05-28T19:40:42.982Z,95017.56
2023-05-28T19:43:10.506Z,95012.88
2023-05-28T19:45:37.234Z,95008.41
2023-05-28T19:48:04.582Z,95012.91
2023-05-28T19:50:31.455Z,95015.25
2023-05-28T19:52:58.336Z,95011.13
2023-05-28T19:55:25.020Z,95017.34
2023-05-28T19:57:52.123Z,95021.72
2023-05-28T20:00:18.840Z,95020.97
2023-05-28T20:02:45.746Z,95021.28
2023-05-28T20:05:13.071Z,95025.84
2023-05-28T20:07:41.591Z,95022.94
2023-05-28T20:10:10.135Z,95020.19
2023-05-28T20:12:37.084Z,95021.47
2023-05-28T20:15:03.953Z,95020.56
2023-05-28T20:17:31.104Z,95022.66
2023-05-28T20:20:00.444Z,95026.72
2023-05-28T20:22:27.494Z,95023.47
2023-05-28T20:24:54.169Z,95023.47
2023-05-28T20:27:20.927Z,95027.84
2023-05-28T20:29:47.798Z,95025.91
2023-05-28T20:32:14.569Z,95025.94
2023-05-28T20:34:41.139Z,95024.31
2023-05-28T20:37:09.566Z,95030.97
2023-05-28T20:39:37.346Z,95030.31
2023-05-28T20:42:05.171Z,95028.72
2023-05-28T20:44:36.729Z,95031.47
2023-05-28T20:47:05.677Z,95036.31
2023-05-28T20:49:32.443Z,95038.41
2023-05-28T20:51:59.252Z,95034.00
2023-05-28T20:54:26.176Z,95037.63
2023-05-28T20:56:55.393Z,95036.81
2023-05-28T20:59:22.441Z,95033.38
2023-05-28T21:01:49.185Z,95039.81
2023-05-28T21:04:15.901Z,95037.25
2023-05-28T21:06:42.742Z,95031.31
2023-05-28T21:09:09.718Z,95034.19
2023-05-28T21:11:36.447Z,95039.47
2023-05-28T21:14:03.314Z,95030.88
2023-05-28T21:16:30.021Z,95037.50
2023-05-28T21:18:56.760Z,95037.00
2023-05-28T21:21:25.112Z,95023.44
2023-05-28T21:23:55.148Z,95026.63
2023-05-28T21:26:22.010Z,95029.72
2023-05-28T21:28:48.672Z,95025.16
2023-05-28T21:31:16.174Z,95031.06
2023-05-28T21:33:42.941Z,95022.00
2023-05-28T21:36:09.515Z,95027.78
2023-05-28T21:38:36.336Z,95026.97
2023-05-28T21:41:03.260Z,95033.09
2023-05-28T21:43:29.848Z,95036.94
2023-05-28T21:45:56.633Z,95030.47
2023-05-28T21:48:23.361Z,95033.31
2023-05-28T21:50:50.613Z,95029.59
2023-05-28T21:53:17.245Z,95028.81
2023-05-28T21:55:43.953Z,95028.97
2023-05-28T21:58:11.060Z,95030.31
2023-05-28T22:00:38.018Z,95031.44
2023-05-28T22:03:05.034Z,95032.19
2023-05-28T22:05:31.736Z,95032.25
2023-05-28T22:07:58.578Z,95037.56
2023-05-28T22:10:25.266Z,95030.34
2023-05-28T22:12:52.239Z,95029.03
2023-05-28T22:15:19.754Z,95025.66
2023-05-28T22:17:46.901Z,95022.34
2023-05-28T22:20:14.434Z,95024.59
2023-05-28T22:22:42.528Z,95020.34
2023-05-28T22:25:11.388Z,95028.75
2023-05-28T22:27:40.180Z,95023.16
2023-05-28T22:30:07.866Z,95019.94
2023-05-28T22:32:34.903Z,95022.09
2023-05-28T22:35:02.228Z,95016.19
2023-05-28T22:37:29.295Z,95018.34
2023-05-28T22:39:56.105Z,95023.31
2023-05-28T22:42:23.639Z,95025.16
2023-05-28T22:44:50.471Z,95023.56
2023-05-28T22:47:17.971Z,95027.63
2023-05-28T22:49:44.905Z,95017.06
2023-05-28T22:52:12.416Z,95022.06
2023-05-28T22:54:40.223Z,95017.28
2023-05-28T22:57:07.147Z,95021.78
2023-05-28T22:59:34.193Z,95018.75
2023-05-28T23:02:01.133Z,95017.19
2023-05-28T23:04:28.761Z,95019.75
2023-05-28T23:06:55.772Z,95021.03
2023-05-28T23:09:22.690Z,95027.13
2023-05-28T23:11:49.589Z,95022.19
2023-05-28T23:14:16.268Z,95016.66
2023-05-28T23:16:43.456Z,95016.94
2023-05-28T23:19:10.882Z,95019.91
2023-05-28T23:21:39.662Z,95015.69
2023-05-28T23:24:06.817Z,95014.72
2023-05-28T23:26:34.170Z,95015.16
2023-05-28T23:29:00.957Z,95014.13
2023-05-28T23:31:27.696Z,95012.38
2023-05-28T23:33:54.510Z,95017.16
2023-05-28T23:36:21.298Z,95018.94
2023-05-28T23:38:48.024Z,95014.03
2023-05-28T23:41:14.656Z,95015.25
2023-05-28T23:43:41.400Z,95011.72
2023-05-28T23:46:08.465Z,95010.94
2023-05-28T23:48:35.684Z,95017.03
2023-05-28T23:51:02.396Z,95010.63
2023-05-28T23:53:29.062Z,95007.91
2023-05-28T23:55:57.070Z,95011.72
2023-05-28T23:58:23.808Z,95011.06
